sensor_id;sensor_type;location;lat;lon;timestamp;temperature;humidity
84340;SHT30;74521;45.618;5.212;2024-03-07T00:01:12;20.87;40.43
84340;SHT30;74521;45.618;5.212;2024-03-07T00:03:39;20.87;40.58
84340;SHT30;74521;45.618;5.212;2024-03-07T00:06:05;20.87;40.67
84340;SHT30;74521;45.618;5.212;2024-03-07T00:08:34;20.88;40.69
84340;SHT30;74521;45.618;5.212;2024-03-07T00:11:00;20.87;40.62
84340;SHT30;74521;45.618;5.212;2024-03-07T00:13:27;20.84;40.64
84340;SHT30;74521;45.618;5.212;2024-03-07T00:15:54;20.85;40.58
84340;SHT30;74521;45.618;5.212;2024-03-07T00:18:22;20.84;40.69
84340;SHT30;74521;45.618;5.212;2024-03-07T00:20:49;20.81;40.70
84340;SHT30;74521;45.618;5.212;2024-03-07T00:23:15;20.81;40.70
84340;SHT30;74521;45.618;5.212;2024-03-07T00:25:42;20.78;40.68
84340;SHT30;74521;45.618;5.212;2024-03-07T00:28:09;20.80;40.75
84340;SHT30;74521;45.618;5.212;2024-03-07T00:30:35;20.77;40.61
84340;SHT30;74521;45.618;5.212;2024-03-07T00:33:02;20.77;40.77
84340;SHT30;74521;45.618;5.212;2024-03-07T00:35:31;20.77;40.78
84340;SHT30;74521;45.618;5.212;2024-03-07T00:37:57;20.81;40.79
84340;SHT30;74521;45.618;5.212;2024-03-07T00:40:24;20.81;40.84
84340;SHT30;74521;45.618;5.212;2024-03-07T00:42:51;20.82;40.86
84340;SHT30;74521;45.618;5.212;2024-03-07T00:45:18;20.80;40.85
84340;SHT30;74521;45.618;5.212;2024-03-07T00:47:44;20.81;40.87
84340;SHT30;74521;45.618;5.212;2024-03-07T00:50:11;20.77;40.87
84340;SHT30;74521;45.618;5.212;2024-03-07T00:52:39;20.74;40.89
84340;SHT30;74521;45.618;5.212;2024-03-07T00:55:07;20.75;40.92
84340;SHT30;74521;45.618;5.212;2024-03-07T00:57:34;20.75;40.92
84340;SHT30;74521;45.618;5.212;2024-03-07T01:00:01;20.75;40.85
84340;SHT30;74521;45.618;5.212;2024-03-07T01:02:28;20.74;40.95
84340;SHT30;74521;45.618;5.212;2024-03-07T01:04:55;20.71;41.01
84340;SHT30;74521;45.618;5.212;2024-03-07T01:07:22;20.74;40.98
84340;SHT30;74521;45.618;5.212;2024-03-07T01:09:51;20.74;41.01
84340;SHT30;74521;45.618;5.212;2024-03-07T01:12:17;20.75;41.00
84340;SHT30;74521;45.618;5.212;2024-03-07T01:14:45;20.77;41.00
84340;SHT30;74521;45.618;5.212;2024-03-07T01:17:12;20.74;41.07
84340;SHT30;74521;45.618;5.212;2024-03-07T01:19:38;20.72;40.95
84340;SHT30;74521;45.618;5.212;2024-03-07T01:22:05;20.74;41.01
84340;SHT30;74521;45.618;5.212;2024-03-07T01:24:33;20.71;41.05
84340;SHT30;74521;45.618;5.212;2024-03-07T01:27:01;20.68;41.05
84340;SHT30;74521;45.618;5.212;2024-03-07T01:29:28;20.72;41.02
84340;SHT30;74521;45.618;5.212;2024-03-07T01:31:55;20.70;41.04
84340;SHT30;74521;45.618;5.212;2024-03-07T01:34:21;20.70;41.13
84340;SHT30;74521;45.618;5.212;2024-03-07T01:36:48;20.70;41.20
84340;SHT30;74521;45.618;5.212;2024-03-07T01:39:15;20.72;41.17
84340;SHT30;74521;45.618;5.212;2024-03-07T01:41:42;20.72;41.10
84340;SHT30;74521;45.618;5.212;2024-03-07T01:44:10;20.74;41.13
84340;SHT30;74521;45.618;5.212;2024-03-07T01:46:36;20.75;41.16
84340;SHT30;74521;45.618;5.212;2024-03-07T01:49:04;20.72;41.16
84340;SHT30;74521;45.618;5.212;2024-03-07T01:51:33;20.72;41.16
84340;SHT30;74521;45.618;5.212;2024-03-07T01:54:00;20.71;41.14
84340;SHT30;74521;45.618;5.212;2024-03-07T01:56:27;20.71;41.17
84340;SHT30;74521;45.618;5.212;2024-03-07T01:58:55;20.68;41.16
84340;SHT30;74521;45.618;5.212;2024-03-07T02:01:23;20.67;41.17
84340;SHT30;74521;45.618;5.212;2024-03-07T02:03:50;20.68;41.14
84340;SHT30;74521;45.618;5.212;2024-03-07T02:06:17;20.65;41.13
84340;SHT30;74521;45.618;5.212;2024-03-07T02:08:43;20.64;41.31
84340;SHT30;74521;45.618;5.212;2024-03-07T02:11:10;20.67;41.21
84340;SHT30;74521;45.618;5.212;2024-03-07T02:13:37;20.65;41.26
84340;SHT30;74521;45.618;5.212;2024-03-07T02:16:04;20.68;41.20
84340;SHT30;74521;45.618;5.212;2024-03-07T02:18:35;20.68;41.20
84340;SHT30;74521;45.618;5.212;2024-03-07T02:21:07;20.70;41.16
84340;SHT30;74521;45.618;5.212;2024-03-07T02:23:34;20.67;41.20
84340;SHT30;74521;45.618;5.212;2024-03-07T02:26:01;20.68;41.17
84340;SHT30;74521;45.618;5.212;2024-03-07T02:28:28;20.67;41.22
84340;SHT30;74521;45.618;5.212;2024-03-07T02:30:55;20.67;41.26
84340;SHT30;74521;45.618;5.212;2024-03-07T02:33:21;20.64;41.22
84340;SHT30;74521;45.618;5.212;2024-03-07T02:35:48;20.63;41.26
84340;SHT30;74521;45.618;5.212;2024-03-07T02:38:16;20.63;41.22
84340;SHT30;74521;45.618;5.212;2024-03-07T02:40:43;20.61;41.29
84340;SHT30;74521;45.618;5.212;2024-03-07T02:43:10;20.61;41.39
84340;SHT30;74521;45.618;5.212;2024-03-07T02:45:37;20.63;41.38
84340;SHT30;74521;45.618;5.212;2024-03-07T02:48:04;20.65;41.29
84340;SHT30;74521;45.618;5.212;2024-03-07T02:50:34;20.68;41.22
84340;SHT30;74521;45.618;5.212;2024-03-07T02:53:03;20.65;41.22
84340;SHT30;74521;45.618;5.212;2024-03-07T02:55:31;20.65;41.28
84340;SHT30;74521;45.618;5.212;2024-03-07T02:57:57;20.67;41.29
84340;SHT30;74521;45.618;5.212;2024-03-07T03:00:24;20.67;41.35
84340;SHT30;74521;45.618;5.212;2024-03-07T03:02:55;20.67;41.33
84340;SHT30;74521;45.618;5.212;2024-03-07T03:05:22;20.64;41.36
84340;SHT30;74521;45.618;5.212;2024-03-07T03:07:50;20.65;41.34
84340;SHT30;74521;45.618;5.212;2024-03-07T03:10:20;20.65;41.32
84340;SHT30;74521;45.618;5.212;2024-03-07T03:12:52;20.61;41.41
84340;SHT30;74521;45.618;5.212;2024-03-07T03:15:19;20.61;41.34
84340;SHT30;74521;45.618;5.212;2024-03-07T03:17:46;20.58;41.45
84340;SHT30;74521;45.618;5.212;2024-03-07T03:20:13;20.58;41.43
84340;SHT30;74521;45.618;5.212;2024-03-07T03:22:50;20.63;41.38
84340;SHT30;74521;45.618;5.212;2024-03-07T03:25:17;20.64;41.32
84340;SHT30;74521;45.618;5.212;2024-03-07T03:27:44;20.65;41.34
84340;SHT30;74521;45.618;5.212;2024-03-07T03:30:12;20.63;41.34
84340;SHT30;74521;45.618;5.212;2024-03-07T03:32:39;20.61;41.37
84340;SHT30;74521;45.618;5.212;2024-03-07T03:35:07;20.63;41.35
84340;SHT30;74521;45.618;5.212;2024-03-07T03:37:39;20.60;41.36
84340;SHT30;74521;45.618;5.212;2024-03-07T03:40:06;20.58;41.35
84340;SHT30;74521;45.618;5.212;2024-03-07T03:42:34;20.60;41.35
84340;SHT30;74521;45.618;5.212;2024-03-07T03:45:01;20.55;41.40
84340;SHT30;74521;45.618;5.212;2024-03-07T03:47:30;20.55;41.41
84340;SHT30;74521;45.618;5.212;2024-03-07T03:49:56;20.54;41.49
84340;SHT30;74521;45.618;5.212;2024-03-07T03:52:23;20.55;41.44
84340;SHT30;74521;45.618;5.212;2024-03-07T03:54:51;20.54;41.40
84340;SHT30;74521;45.618;5.212;2024-03-07T03:57:18;20.54;41.39
84340;SHT30;74521;45.618;5.212;2024-03-07T03:59:44;20.57;41.36
84340;SHT30;74521;45.618;5.212;2024-03-07T04:02:11;20.58;41.36
84340;SHT30;74521;45.618;5.212;2024-03-07T04:04:40;20.53;41.41
84340;SHT30;74521;45.618;5.212;2024-03-07T04:07:06;20.53;41.38
84340;SHT30;74521;45.618;5.212;2024-03-07T04:09:33;20.55;41.48
84340;SHT30;74521;45.618;5.212;2024-03-07T04:12:00;20.54;41.38
84340;SHT30;74521;45.618;5.212;2024-03-07T04:14:27;20.51;41.39
84340;SHT30;74521;45.618;5.212;2024-03-07T04:16:56;20.51;41.37
84340;SHT30;74521;45.618;5.212;2024-03-07T04:19:22;20.48;41.39
84340;SHT30;74521;45.618;5.212;2024-03-07T04:21:50;20.47;41.38
84340;SHT30;74521;45.618;5.212;2024-03-07T04:24:17;20.47;41.43
84340;SHT30;74521;45.618;5.212;2024-03-07T04:26:43;20.51;41.45
84340;SHT30;74521;45.618;5.212;2024-03-07T04:29:10;20.48;41.37
84340;SHT30;74521;45.618;5.212;2024-03-07T04:31:37;20.51;41.38
84340;SHT30;74521;45.618;5.212;2024-03-07T04:34:03;20.53;41.38
84340;SHT30;74521;45.618;5.212;2024-03-07T04:36:30;20.50;41.41
84340;SHT30;74521;45.618;5.212;2024-03-07T04:38:59;20.50;41.39
84340;SHT30;74521;45.618;5.212;2024-03-07T04:41:27;20.51;41.42
84340;SHT30;74521;45.618;5.212;2024-03-07T04:43:54;20.48;41.47
84340;SHT30;74521;45.618;5.212;2024-03-07T04:46:20;20.50;41.41
84340;SHT30;74521;45.618;5.212;2024-03-07T04:48:47;20.48;41.46
84340;SHT30;74521;45.618;5.212;2024-03-07T04:51:14;20.47;41.46
84340;SHT30;74521;45.618;5.212;2024-03-07T04:53:40;20.44;41.42
84340;SHT30;74521;45.618;5.212;2024-03-07T04:56:09;20.44;41.50
84340;SHT30;74521;45.618;5.212;2024-03-07T04:58:35;20.43;41.51
84340;SHT30;74521;45.618;5.212;2024-03-07T05:01:02;20.45;41.54
84340;SHT30;74521;45.618;5.212;2024-03-07T05:03:29;20.44;41.49
84340;SHT30;74521;45.618;5.212;2024-03-07T05:05:57;20.45;41.54
84340;SHT30;74521;45.618;5.212;2024-03-07T05:08:25;20.48;41.58
84340;SHT30;74521;45.618;5.212;2024-03-07T05:10:52;20.51;41.53
84340;SHT30;74521;45.618;5.212;2024-03-07T05:13:20;20.50;41.57
84340;SHT30;74521;45.618;5.212;2024-03-07T05:15:46;20.48;41.54
84340;SHT30;74521;45.618;5.212;2024-03-07T05:18:13;20.47;41.58
84340;SHT30;74521;45.618;5.212;2024-03-07T05:20:39;20.44;41.54
84340;SHT30;74521;45.618;5.212;2024-03-07T05:23:06;20.45;41.54
84340;SHT30;74521;45.618;5.212;2024-03-07T05:25:33;20.43;41.44
84340;SHT30;74521;45.618;5.212;2024-03-07T05:27:59;20.43;41.41
84340;SHT30;74521;45.618;5.212;2024-03-07T05:30:29;20.41;41.30
84340;SHT30;74521;45.618;5.212;2024-03-07T05:32:57;20.43;41.22
84340;SHT30;74521;45.618;5.212;2024-03-07T05:35:27;20.39;41.39
84340;SHT30;74521;45.618;5.212;2024-03-07T05:37:54;20.39;41.47
84340;SHT30;74521;45.618;5.212;2024-03-07T05:40:22;20.41;41.41
84340;SHT30;74521;45.618;5.212;2024-03-07T05:42:48;20.41;41.44
84340;SHT30;74521;45.618;5.212;2024-03-07T05:45:15;20.45;41.41
84340;SHT30;74521;45.618;5.212;2024-03-07T05:47:44;20.45;41.40
84340;SHT30;74521;45.618;5.212;2024-03-07T05:50:12;20.45;41.32
84340;SHT30;74521;45.618;5.212;2024-03-07T05:52:39;20.43;41.36
84340;SHT30;74521;45.618;5.212;2024-03-07T05:55:06;20.44;41.28
84340;SHT30;74521;45.618;5.212;2024-03-07T05:57:33;20.41;41.33
84340;SHT30;74521;45.618;5.212;2024-03-07T05:59:59;20.43;41.29
84340;SHT30;74521;45.618;5.212;2024-03-07T06:02:26;20.41;41.32
84340;SHT30;74521;45.618;5.212;2024-03-07T06:04:55;20.36;41.27
84340;SHT30;74521;45.618;5.212;2024-03-07T06:07:21;20.37;41.21
84340;SHT30;74521;45.618;5.212;2024-03-07T06:09:48;20.34;41.15
84340;SHT30;74521;45.618;5.212;2024-03-07T06:12:15;20.34;41.06
84340;SHT30;74521;45.618;5.212;2024-03-07T06:14:43;20.34;41.04
84340;SHT30;74521;45.618;5.212;2024-03-07T06:17:09;20.33;41.14
84340;SHT30;74521;45.618;5.212;2024-03-07T06:19:36;20.30;41.10
84340;SHT30;74521;45.618;5.212;2024-03-07T06:22:04;20.34;41.10
84340;SHT30;74521;45.618;5.212;2024-03-07T06:24:34;20.33;41.12
84340;SHT30;74521;45.618;5.212;2024-03-07T06:27:01;20.33;41.08
84340;SHT30;74521;45.618;5.212;2024-03-07T06:29:29;20.33;41.04
84340;SHT30;74521;45.618;5.212;2024-03-07T06:31:56;20.32;40.98
84340;SHT30;74521;45.618;5.212;2024-03-07T06:34:22;20.30;40.97
84340;SHT30;74521;45.618;5.212;2024-03-07T06:36:49;20.29;41.21
84340;SHT30;74521;45.618;5.212;2024-03-07T06:39:17;20.27;40.92
84340;SHT30;74521;45.618;5.212;2024-03-07T06:41:47;20.25;40.60
84340;SHT30;74521;45.618;5.212;2024-03-07T06:44:13;20.25;40.66
84340;SHT30;74521;45.618;5.212;2024-03-07T06:46:40;20.23;40.66
84340;SHT30;74521;45.618;5.212;2024-03-07T06:49:07;20.25;40.69
84340;SHT30;74521;45.618;5.212;2024-03-07T06:51:35;20.26;40.69
84340;SHT30;74521;45.618;5.212;2024-03-07T06:54:02;20.27;40.66
84340;SHT30;74521;45.618;5.212;2024-03-07T06:56:30;20.25;40.69
84340;SHT30;74521;45.618;5.212;2024-03-07T06:58:57;20.25;40.62
84340;SHT30;74521;45.618;5.212;2024-03-07T07:01:24;20.22;40.54
84340;SHT30;74521;45.618;5.212;2024-03-07T07:03:51;20.20;40.49
84340;SHT30;74521;45.618;5.212;2024-03-07T07:06:20;20.19;40.52
84340;SHT30;74521;45.618;5.212;2024-03-07T07:08:46;20.16;40.56
84340;SHT30;74521;45.618;5.212;2024-03-07T07:11:13;20.15;40.54
84340;SHT30;74521;45.618;5.212;2024-03-07T07:13:42;20.16;40.53
84340;SHT30;74521;45.618;5.212;2024-03-07T07:16:08;20.13;40.51
84340;SHT30;74521;45.618;5.212;2024-03-07T07:18:35;20.13;40.52
84340;SHT30;74521;45.618;5.212;2024-03-07T07:21:02;20.13;40.52
84340;SHT30;74521;45.618;5.212;2024-03-07T07:23:29;20.16;40.49
84340;SHT30;74521;45.618;5.212;2024-03-07T07:25:56;20.20;40.51
84340;SHT30;74521;45.618;5.212;2024-03-07T07:28:22;20.16;40.51
84340;SHT30;74521;45.618;5.212;2024-03-07T07:30:51;20.17;40.50
84340;SHT30;74521;45.618;5.212;2024-03-07T07:33:17;20.16;40.44
84340;SHT30;74521;45.618;5.212;2024-03-07T07:35:44;20.16;40.48
84340;SHT30;74521;45.618;5.212;2024-03-07T07:38:11;20.13;40.39
84340;SHT30;74521;45.618;5.212;2024-03-07T07:40:40;20.13;40.39
84340;SHT30;74521;45.618;5.212;2024-03-07T07:43:06;20.13;40.38
84340;SHT30;74521;45.618;5.212;2024-03-07T07:45:33;20.12;40.37
84340;SHT30;74521;45.618;5.212;2024-03-07T07:48:02;20.10;40.35
84340;SHT30;74521;45.618;5.212;2024-03-07T07:50:29;20.10;40.38
84340;SHT30;74521;45.618;5.212;2024-03-07T07:52:59;20.10;40.36
84340;SHT30;74521;45.618;5.212;2024-03-07T07:55:27;20.10;40.38
84340;SHT30;74521;45.618;5.212;2024-03-07T07:57:55;20.10;40.42
84340;SHT30;74521;45.618;5.212;2024-03-07T08:00:23;20.12;40.42
84340;SHT30;74521;45.618;5.212;2024-03-07T08:02:52;20.13;40.48
84340;SHT30;74521;45.618;5.212;2024-03-07T08:05:21;20.12;40.38
84340;SHT30;74521;45.618;5.212;2024-03-07T08:07:49;20.12;40.37
84340;SHT30;74521;45.618;5.212;2024-03-07T08:10:17;20.10;40.35
84340;SHT30;74521;45.618;5.212;2024-03-07T08:12:43;20.09;40.31
84340;SHT30;74521;45.618;5.212;2024-03-07T08:15:11;20.09;40.28
84340;SHT30;74521;45.618;5.212;2024-03-07T08:17:42;20.06;40.28
84340;SHT30;74521;45.618;5.212;2024-03-07T08:20:11;20.08;40.26
84340;SHT30;74521;45.618;5.212;2024-03-07T08:22:40;20.06;40.18
84340;SHT30;74521;45.618;5.212;2024-03-07T08:25:08;20.08;40.24
84340;SHT30;74521;45.618;5.212;2024-03-07T08:27:36;20.09;40.33
84340;SHT30;74521;45.618;5.212;2024-03-07T08:30:03;20.12;40.42
84340;SHT30;74521;45.618;5.212;2024-03-07T08:32:31;20.12;40.44
84340;SHT30;74521;45.618;5.212;2024-03-07T08:34:59;20.09;40.45
84340;SHT30;74521;45.618;5.212;2024-03-07T08:37:26;20.08;40.45
84340;SHT30;74521;45.618;5.212;2024-03-07T08:39:54;20.10;40.46
84340;SHT30;74521;45.618;5.212;2024-03-07T08:42:21;20.06;40.46
84340;SHT30;74521;45.618;5.212;2024-03-07T08:44:48;20.06;40.39
84340;SHT30;74521;45.618;5.212;2024-03-07T08:47:14;20.04;40.50
84340;SHT30;74521;45.618;5.212;2024-03-07T08:49:41;20.04;40.38
84340;SHT30;74521;45.618;5.212;2024-03-07T08:52:07;20.06;40.27
84340;SHT30;74521;45.618;5.212;2024-03-07T08:54:34;20.06;40.36
84340;SHT30;74521;45.618;5.212;2024-03-07T08:57:02;20.08;40.44
84340;SHT30;74521;45.618;5.212;2024-03-07T08:59:30;20.09;40.50
84340;SHT30;74521;45.618;5.212;2024-03-07T09:01:58;20.09;40.45
84340;SHT30;74521;45.618;5.212;2024-03-07T09:04:27;20.09;40.49
84340;SHT30;74521;45.618;5.212;2024-03-07T09:06:54;20.08;40.51
84340;SHT30;74521;45.618;5.212;2024-03-07T09:09:20;20.08;40.60
84340;SHT30;74521;45.618;5.212;2024-03-07T09:11:47;20.08;40.56
84340;SHT30;74521;45.618;5.212;2024-03-07T09:14:15;20.08;40.55
84340;SHT30;74521;45.618;5.212;2024-03-07T09:16:42;20.04;40.52
84340;SHT30;74521;45.618;5.212;2024-03-07T09:19:10;20.06;40.61
84340;SHT30;74521;45.618;5.212;2024-03-07T09:21:39;20.06;40.49
84340;SHT30;74521;45.618;5.212;2024-03-07T09:24:05;20.06;40.51
84340;SHT30;74521;45.618;5.212;2024-03-07T09:26:32;20.06;40.55
84340;SHT30;74521;45.618;5.212;2024-03-07T09:28:59;20.09;40.57
84340;SHT30;74521;45.618;5.212;2024-03-07T09:31:32;20.09;40.62
84340;SHT30;74521;45.618;5.212;2024-03-07T09:33:59;20.09;40.64
84340;SHT30;74521;45.618;5.212;2024-03-07T09:36:26;20.09;40.66
84340;SHT30;74521;45.618;5.212;2024-03-07T09:38:53;20.10;40.62
84340;SHT30;74521;45.618;5.212;2024-03-07T09:41:20;20.09;40.67
84340;SHT30;74521;45.618;5.212;2024-03-07T09:43:51;20.09;40.58
84340;SHT30;74521;45.618;5.212;2024-03-07T09:46:20;20.13;40.55
84340;SHT30;74521;45.618;5.212;2024-03-07T09:48:49;20.12;40.58
84340;SHT30;74521;45.618;5.212;2024-03-07T09:51:18;20.12;40.62
84340;SHT30;74521;45.618;5.212;2024-03-07T09:53:46;20.10;40.61
84340;SHT30;74521;45.618;5.212;2024-03-07T09:56:17;20.09;40.66
84340;SHT30;74521;45.618;5.212;2024-03-07T09:58:49;20.16;40.72
84340;SHT30;74521;45.618;5.212;2024-03-07T10:01:20;20.15;40.78
84340;SHT30;74521;45.618;5.212;2024-03-07T10:03:49;20.15;40.78
84340;SHT30;74521;45.618;5.212;2024-03-07T10:06:16;20.13;40.75
84340;SHT30;74521;45.618;5.212;2024-03-07T10:08:44;20.13;40.78
84340;SHT30;74521;45.618;5.212;2024-03-07T10:11:10;20.13;40.76
84340;SHT30;74521;45.618;5.212;2024-03-07T10:13:39;20.16;40.82
84340;SHT30;74521;45.618;5.212;2024-03-07T10:16:06;20.15;40.82
84340;SHT30;74521;45.618;5.212;2024-03-07T10:18:33;20.15;40.87
84340;SHT30;74521;45.618;5.212;2024-03-07T10:21:09;20.15;40.86
84340;SHT30;74521;45.618;5.212;2024-03-07T10:23:36;20.12;40.79
84340;SHT30;74521;45.618;5.212;2024-03-07T10:26:04;20.15;40.79
84340;SHT30;74521;45.618;5.212;2024-03-07T10:28:31;20.16;40.74
84340;SHT30;74521;45.618;5.212;2024-03-07T10:30:59;20.16;40.78
84340;SHT30;74521;45.618;5.212;2024-03-07T10:33:27;20.17;40.82
84340;SHT30;74521;45.618;5.212;2024-03-07T10:35:53;20.22;40.84
84340;SHT30;74521;45.618;5.212;2024-03-07T10:38:21;20.19;40.85
84340;SHT30;74521;45.618;5.212;2024-03-07T10:40:53;20.20;40.84
84340;SHT30;74521;45.618;5.212;2024-03-07T10:43:21;20.22;40.89
84340;SHT30;74521;45.618;5.212;2024-03-07T10:45:49;20.22;40.87
84340;SHT30;74521;45.618;5.212;2024-03-07T10:48:18;20.22;40.81
84340;SHT30;74521;45.618;5.212;2024-03-07T10:50:52;20.20;40.87
84340;SHT30;74521;45.618;5.212;2024-03-07T10:53:32;20.22;40.85
84340;SHT30;74521;45.618;5.212;2024-03-07T10:56:22;20.20;40.77
84340;SHT30;74521;45.618;5.212;2024-03-07T10:58:58;20.22;40.78
84340;SHT30;74521;45.618;5.212;2024-03-07T11:01:26;20.25;40.86
84340;SHT30;74521;45.618;5.212;2024-03-07T11:03:56;20.27;40.84
84340;SHT30;74521;45.618;5.212;2024-03-07T11:06:24;20.30;40.84
84340;SHT30;74521;45.618;5.212;2024-03-07T11:08:53;20.32;40.89
84340;SHT30;74521;45.618;5.212;2024-03-07T11:11:21;20.32;40.89
84340;SHT30;74521;45.618;5.212;2024-03-07T11:13:50;20.34;40.93
84340;SHT30;74521;45.618;5.212;2024-03-07T11:16:19;20.33;40.93
84340;SHT30;74521;45.618;5.212;2024-03-07T11:19:18;20.36;40.94
84340;SHT30;74521;45.618;5.212;2024-03-07T11:21:46;20.37;40.92
84340;SHT30;74521;45.618;5.212;2024-03-07T11:24:24;20.36;40.81
84340;SHT30;74521;45.618;5.212;2024-03-07T11:26:52;20.40;40.82
84340;SHT30;74521;45.618;5.212;2024-03-07T11:29:47;20.41;40.82
84340;SHT30;74521;45.618;5.212;2024-03-07T11:32:18;20.44;40.81
84340;SHT30;74521;45.618;5.212;2024-03-07T11:34:46;20.47;40.80
84340;SHT30;74521;45.618;5.212;2024-03-07T11:37:20;20.48;40.75
84340;SHT30;74521;45.618;5.212;2024-03-07T11:40:08;20.51;40.79
84340;SHT30;74521;45.618;5.212;2024-03-07T11:42:43;20.55;40.78
84340;SHT30;74521;45.618;5.212;2024-03-07T11:45:12;20.57;40.75
84340;SHT30;74521;45.618;5.212;2024-03-07T11:47:50;20.60;40.76
84340;SHT30;74521;45.618;5.212;2024-03-07T11:50:17;20.61;40.82
84340;SHT30;74521;45.618;5.212;2024-03-07T11:52:45;20.65;40.82
84340;SHT30;74521;45.618;5.212;2024-03-07T11:55:13;20.65;40.71
84340;SHT30;74521;45.618;5.212;2024-03-07T11:57:40;20.70;40.81
84340;SHT30;74521;45.618;5.212;2024-03-07T12:00:10;20.75;40.79
84340;SHT30;74521;45.618;5.212;2024-03-07T12:02:38;20.74;40.71
84340;SHT30;74521;45.618;5.212;2024-03-07T12:05:05;20.75;40.69
84340;SHT30;74521;45.618;5.212;2024-03-07T12:07:31;20.80;40.74
84340;SHT30;74521;45.618;5.212;2024-03-07T12:09:59;20.82;40.66
84340;SHT30;74521;45.618;5.212;2024-03-07T12:12:30;20.90;40.53
84340;SHT30;74521;45.618;5.212;2024-03-07T12:14:58;20.91;40.49
84340;SHT30;74521;45.618;5.212;2024-03-07T12:17:25;20.94;40.50
84340;SHT30;74521;45.618;5.212;2024-03-07T12:19:56;20.98;40.48
84340;SHT30;74521;45.618;5.212;2024-03-07T12:22:26;21.01;40.49
84340;SHT30;74521;45.618;5.212;2024-03-07T12:25:00;21.03;40.45
84340;SHT30;74521;45.618;5.212;2024-03-07T12:27:28;21.06;40.44
84340;SHT30;74521;45.618;5.212;2024-03-07T12:29:57;21.11;40.45
84340;SHT30;74521;45.618;5.212;2024-03-07T12:32:27;21.13;40.41
84340;SHT30;74521;45.618;5.212;2024-03-07T12:34:54;21.15;40.32
84340;SHT30;74521;45.618;5.212;2024-03-07T12:37:21;21.18;40.14
84340;SHT30;74521;45.618;5.212;2024-03-07T12:39:52;21.22;40.17
84340;SHT30;74521;45.618;5.212;2024-03-07T12:42:27;21.23;40.19
84340;SHT30;74521;45.618;5.212;2024-03-07T12:44:58;21.28;40.19
84340;SHT30;74521;45.618;5.212;2024-03-07T12:47:25;21.30;40.10
84340;SHT30;74521;45.618;5.212;2024-03-07T12:49:52;21.32;40.02
84340;SHT30;74521;45.618;5.212;2024-03-07T12:52:18;21.36;39.91
84340;SHT30;74521;45.618;5.212;2024-03-07T12:54:45;21.40;39.87
84340;SHT30;74521;45.618;5.212;2024-03-07T12:57:13;21.43;39.74
84340;SHT30;74521;45.618;5.212;2024-03-07T12:59:40;21.49;39.81
84340;SHT30;74521;45.618;5.212;2024-03-07T13:02:09;21.51;39.77
84340;SHT30;74521;45.618;5.212;2024-03-07T13:04:36;21.53;39.70
84340;SHT30;74521;45.618;5.212;2024-03-07T13:07:04;21.58;39.52
84340;SHT30;74521;45.618;5.212;2024-03-07T13:09:30;21.60;39.49
84340;SHT30;74521;45.618;5.212;2024-03-07T13:11:57;21.66;39.40
84340;SHT30;74521;45.618;5.212;2024-03-07T13:14:25;21.68;39.30
84340;SHT30;74521;45.618;5.212;2024-03-07T13:16:55;21.71;39.24
84340;SHT30;74521;45.618;5.212;2024-03-07T13:19:23;21.76;39.24
84340;SHT30;74521;45.618;5.212;2024-03-07T13:21:51;21.77;39.15
84340;SHT30;74521;45.618;5.212;2024-03-07T13:24:18;21.81;39.07
84340;SHT30;74521;45.618;5.212;2024-03-07T13:26:45;21.84;38.88
84340;SHT30;74521;45.618;5.212;2024-03-07T13:29:13;21.90;38.90
84340;SHT30;74521;45.618;5.212;2024-03-07T13:31:43;21.90;38.55
84340;SHT30;74521;45.618;5.212;2024-03-07T13:34:10;21.98;38.65
84340;SHT30;74521;45.618;5.212;2024-03-07T13:36:40;21.98;38.66
84340;SHT30;74521;45.618;5.212;2024-03-07T13:39:07;22.04;38.54
84340;SHT30;74521;45.618;5.212;2024-03-07T13:41:37;22.08;38.42
84340;SHT30;74521;45.618;5.212;2024-03-07T13:44:04;22.09;38.42
84340;SHT30;74521;45.618;5.212;2024-03-07T13:46:30;22.11;38.21
84340;SHT30;74521;45.618;5.212;2024-03-07T13:48:58;22.14;38.32
84340;SHT30;74521;45.618;5.212;2024-03-07T13:51:32;22.15;38.28
84340;SHT30;74521;45.618;5.212;2024-03-07T13:54:01;22.19;37.88
84340;SHT30;74521;45.618;5.212;2024-03-07T13:56:55;22.21;37.84
84340;SHT30;74521;45.618;5.212;2024-03-07T13:59:51;22.24;37.90
84340;SHT30;74521;45.618;5.212;2024-03-07T14:02:42;22.25;37.75
84340;SHT30;74521;45.618;5.212;2024-03-07T14:08:49;22.29;38.01
84340;SHT30;74521;45.618;5.212;2024-03-07T14:11:41;22.35;37.93
84340;SHT30;74521;45.618;5.212;2024-03-07T14:14:35;22.41;37.60
84340;SHT30;74521;45.618;5.212;2024-03-07T14:23:14;22.48;37.17
84340;SHT30;74521;45.618;5.212;2024-03-07T14:25:56;22.53;37.16
84340;SHT30;74521;45.618;5.212;2024-03-07T14:28:51;22.53;37.15
84340;SHT30;74521;45.618;5.212;2024-03-07T14:31:20;22.56;37.28
84340;SHT30;74521;45.618;5.212;2024-03-07T14:33:52;22.57;37.07
84340;SHT30;74521;45.618;5.212;2024-03-07T14:36:33;22.59;37.12
84340;SHT30;74521;45.618;5.212;2024-03-07T14:39:02;22.60;37.40
84340;SHT30;74521;45.618;5.212;2024-03-07T14:41:44;22.62;37.25
84340;SHT30;74521;45.618;5.212;2024-03-07T14:44:14;22.67;37.30
84340;SHT30;74521;45.618;5.212;2024-03-07T14:46:41;22.67;37.43
84340;SHT30;74521;45.618;5.212;2024-03-07T14:49:10;22.73;37.21
84340;SHT30;74521;45.618;5.212;2024-03-07T14:51:41;22.79;37.13
84340;SHT30;74521;45.618;5.212;2024-03-07T14:54:08;22.80;37.26
84340;SHT30;74521;45.618;5.212;2024-03-07T14:56:34;22.86;37.10
84340;SHT30;74521;45.618;5.212;2024-03-07T14:59:01;22.89;37.07
84340;SHT30;74521;45.618;5.212;2024-03-07T15:01:32;22.93;36.97
84340;SHT30;74521;45.618;5.212;2024-03-07T15:04:00;22.94;36.88
84340;SHT30;74521;45.618;5.212;2024-03-07T15:06:32;22.97;36.69
84340;SHT30;74521;45.618;5.212;2024-03-07T15:08:59;23.00;36.75
84340;SHT30;74521;45.618;5.212;2024-03-07T15:11:29;23.03;36.41
84340;SHT30;74521;45.618;5.212;2024-03-07T15:13:58;23.06;36.60
84340;SHT30;74521;45.618;5.212;2024-03-07T15:16:25;23.06;36.55
84340;SHT30;74521;45.618;5.212;2024-03-07T15:18:54;23.04;36.58
84340;SHT30;74521;45.618;5.212;2024-03-07T15:21:21;23.07;36.80
84340;SHT30;74521;45.618;5.212;2024-03-07T15:23:48;23.08;36.80
84340;SHT30;74521;45.618;5.212;2024-03-07T15:26:14;23.10;36.76
84340;SHT30;74521;45.618;5.212;2024-03-07T15:28:43;23.14;36.59
84340;SHT30;74521;45.618;5.212;2024-03-07T15:31:10;23.17;36.49
84340;SHT30;74521;45.618;5.212;2024-03-07T15:33:44;23.19;36.44
84340;SHT30;74521;45.618;5.212;2024-03-07T15:36:13;23.21;36.35
84340;SHT30;74521;45.618;5.212;2024-03-07T15:38:40;23.24;36.44
84340;SHT30;74521;45.618;5.212;2024-03-07T15:41:07;23.24;36.45
84340;SHT30;74521;45.618;5.212;2024-03-07T15:43:35;23.28;36.68
84340;SHT30;74521;45.618;5.212;2024-03-07T15:46:02;23.24;36.35
84340;SHT30;74521;45.618;5.212;2024-03-07T15:48:30;23.28;36.33